createdAt,value
2023-02-23T00:01:15.106Z,3.30
2023-02-23T00:03:24.055Z,3.67
2023-02-23T00:05:39.460Z,3.67
2023-02-23T00:07:48.194Z,3.40
2023-02-23T00:09:57.273Z,3.40
2023-02-23T00:12:09.212Z,3.50
2023-02-23T00:14:19.714Z,3.00
2023-02-23T00:16:28.602Z,3.60
2023-02-23T00:18:45.321Z,2.97
2023-02-23T00:20:57.891Z,3.50
2023-02-23T00:23:06.708Z,3.73
2023-02-23T00:25:15.845Z,3.60
2023-02-23T00:27:24.996Z,2.70
2023-02-23T00:29:39.976Z,3.40
2023-02-23T00:31:49.455Z,3.30
2023-02-23T00:34:00.288Z,3.10
2023-02-23T00:36:11.383Z,3.10
2023-02-23T00:38:20.014Z,4.10
2023-02-23T00:40:29.602Z,3.30
2023-02-23T00:42:38.468Z,2.97
2023-02-23T00:44:49.458Z,3.50
2023-02-23T00:46:58.122Z,3.13
2023-02-23T00:49:06.681Z,3.37
2023-02-23T00:51:15.637Z,3.07
2023-02-23T00:53:24.308Z,3.17
2023-02-23T00:55:32.684Z,3.50
2023-02-23T00:57:41.471Z,3.07
2023-02-23T00:59:52.569Z,3.03
2023-02-23T01:02:01.381Z,3.03
2023-02-23T01:04:11.333Z,3.40
2023-02-23T01:06:19.985Z,2.80
2023-02-23T01:08:30.742Z,2.57
2023-02-23T01:10:43.064Z,2.60
2023-02-23T01:12:52.137Z,3.10
2023-02-23T01:15:03.769Z,2.53
2023-02-23T01:17:12.723Z,2.40
2023-02-23T01:19:21.425Z,2.50
2023-02-23T01:21:32.373Z,2.50
2023-02-23T01:23:40.935Z,2.50
2023-02-23T01:25:49.609Z,2.43
2023-02-23T01:27:58.354Z,2.40
2023-02-23T01:30:11.046Z,2.57
2023-02-23T01:32:19.826Z,2.03
2023-02-23T01:34:28.497Z,2.27
2023-02-23T01:36:39.132Z,2.00
2023-02-23T01:38:49.209Z,2.33
2023-02-23T01:40:58.053Z,1.93
2023-02-23T01:43:14.614Z,2.30
2023-02-23T01:45:37.803Z,2.30
2023-02-23T01:47:48.177Z,1.77
2023-02-23T01:49:56.977Z,1.83
2023-02-23T01:52:10.989Z,1.80
2023-02-23T01:54:25.357Z,2.10
2023-02-23T01:56:37.711Z,2.00
2023-02-23T01:58:49.101Z,1.40
2023-02-23T02:01:02.778Z,2.00
2023-02-23T02:03:15.965Z,1.80
2023-02-23T02:05:25.524Z,1.70
2023-02-23T02:07:35.746Z,1.70
2023-02-23T02:10:04.859Z,1.63
2023-02-23T02:12:15.041Z,1.43
2023-02-23T02:14:27.400Z,1.47
2023-02-23T02:16:47.958Z,1.87
2023-02-23T02:19:28.256Z,1.57
2023-02-23T02:22:09.774Z,1.70
2023-02-23T02:24:56.712Z,1.70
2023-02-23T02:27:22.590Z,1.70
2023-02-23T02:30:11.004Z,1.80
2023-02-23T02:32:50.914Z,1.40
2023-02-23T02:35:31.270Z,2.00
2023-02-23T02:38:02.219Z,1.83
2023-02-23T02:40:22.995Z,1.90
2023-02-23T02:42:40.015Z,1.47
2023-02-23T02:44:56.662Z,1.53
2023-02-23T02:47:10.253Z,1.80
2023-02-23T02:49:28.255Z,1.63
2023-02-23T02:51:44.883Z,1.70
2023-02-23T02:54:07.172Z,1.83
2023-02-23T02:56:20.134Z,1.53
2023-02-23T02:58:29.880Z,1.80
2023-02-23T03:00:58.245Z,1.70
2023-02-23T03:03:24.410Z,2.20
2023-02-23T03:06:00.902Z,2.13
2023-02-23T03:08:34.872Z,1.70
2023-02-23T03:11:09.719Z,2.00
2023-02-23T03:13:42.150Z,1.73
2023-02-23T03:16:17.224Z,1.87
2023-02-23T03:19:06.371Z,1.93
2023-02-23T03:21:35.848Z,1.90
2023-02-23T03:24:10.739Z,1.67
2023-02-23T03:26:43.174Z,1.90
2023-02-23T03:29:17.180Z,1.90
2023-02-23T03:31:46.906Z,1.33
2023-02-23T03:34:20.223Z,1.93
2023-02-23T03:36:50.222Z,2.20
2023-02-23T03:39:21.040Z,2.00
2023-02-23T03:41:52.774Z,1.87
2023-02-23T03:44:22.272Z,1.40
2023-02-23T03:46:50.814Z,1.90
2023-02-23T03:49:19.609Z,1.80
2023-02-23T03:51:46.331Z,2.20
2023-02-23T03:54:21.170Z,1.70
2023-02-23T03:56:52.327Z,1.90
2023-02-23T03:59:21.597Z,2.00
2023-02-23T04:01:48.846Z,1.97
2023-02-23T04:04:18.585Z,1.80
2023-02-23T04:06:48.440Z,2.07
2023-02-23T04:09:18.201Z,1.53
2023-02-23T04:11:53.644Z,1.73
2023-02-23T04:14:04.380Z,1.93
2023-02-23T04:16:12.750Z,1.87
2023-02-23T04:18:25.624Z,1.97
2023-02-23T04:20:34.600Z,1.80
2023-02-23T04:22:43.786Z,1.80
2023-02-23T04:24:52.524Z,1.87
2023-02-23T04:27:03.024Z,2.10
2023-02-23T04:29:12.887Z,2.10
2023-02-23T04:31:25.370Z,1.70
2023-02-23T04:33:34.165Z,1.93
2023-02-23T04:35:43.271Z,1.57
2023-02-23T04:37:52.162Z,2.33
2023-02-23T04:40:00.559Z,1.80
2023-02-23T04:42:11.231Z,1.93
2023-02-23T04:44:19.948Z,1.73
2023-02-23T04:46:28.972Z,2.00
2023-02-23T04:48:37.708Z,2.50
2023-02-23T04:50:46.404Z,1.77
2023-02-23T04:52:55.250Z,2.30
2023-02-23T04:55:03.722Z,2.17
2023-02-23T04:57:13.645Z,2.50
2023-02-23T04:59:22.232Z,2.07
2023-02-23T05:01:33.142Z,2.47
2023-02-23T05:03:41.900Z,2.17
2023-02-23T05:05:50.554Z,2.10
2023-02-23T05:07:59.739Z,2.13
2023-02-23T05:10:09.522Z,2.00
2023-02-23T05:12:19.968Z,2.10
2023-02-23T05:14:28.724Z,2.20
2023-02-23T05:16:37.404Z,2.53
2023-02-23T05:18:46.019Z,2.33
2023-02-23T05:20:54.903Z,2.30
2023-02-23T05:23:03.629Z,2.30
2023-02-23T05:25:12.508Z,1.90
2023-02-23T05:27:22.686Z,2.90
2023-02-23T05:29:30.958Z,2.17
2023-02-23T05:31:39.676Z,2.17
2023-02-23T05:33:48.664Z,2.33
2023-02-23T05:35:57.085Z,2.40
2023-02-23T05:38:05.556Z,2.43
2023-02-23T05:40:15.580Z,2.37
2023-02-23T05:42:25.453Z,2.50
2023-02-23T05:44:35.027Z,2.23
2023-02-23T05:46:43.679Z,1.93
2023-02-23T05:48:53.112Z,2.83
2023-02-23T05:51:04.012Z,2.10
2023-02-23T05:53:12.497Z,2.57
2023-02-23T05:55:21.100Z,2.20
2023-02-23T05:57:31.099Z,2.00
2023-02-23T05:59:39.725Z,2.00
2023-02-23T06:01:48.190Z,2.30
2023-02-23T06:03:57.369Z,2.63
2023-02-23T06:06:06.966Z,2.30
2023-02-23T06:08:15.651Z,2.30
2023-02-23T06:10:24.985Z,2.50
2023-02-23T06:12:35.388Z,2.63
2023-02-23T06:14:44.303Z,2.40
2023-02-23T06:16:53.113Z,2.23
2023-02-23T06:19:01.561Z,2.10
2023-02-23T06:21:10.652Z,2.20
2023-02-23T06:23:19.572Z,2.10
2023-02-23T06:25:28.949Z,2.30
2023-02-23T06:27:38.673Z,2.63
2023-02-23T06:29:46.955Z,2.40
2023-02-23T06:31:55.974Z,2.33
2023-02-23T06:34:05.306Z,2.30
2023-02-23T06:36:16.250Z,2.30
2023-02-23T06:38:25.609Z,2.17
2023-02-23T06:40:34.514Z,2.23
2023-02-23T06:42:44.317Z,2.50
2023-02-23T06:44:53.115Z,2.30
2023-02-23T06:47:01.865Z,2.63
2023-02-23T06:49:12.256Z,2.70
2023-02-23T06:51:21.425Z,2.50
2023-02-23T06:53:31.048Z,2.00
2023-02-23T06:55:40.252Z,2.10
2023-02-23T06:57:54.448Z,2.20
2023-02-23T07:00:04.092Z,2.67
2023-02-23T07:02:13.730Z,2.30
2023-02-23T07:04:22.746Z,2.17
2023-02-23T07:06:31.817Z,2.50
2023-02-23T07:08:40.611Z,2.53
2023-02-23T07:10:49.134Z,3.00
2023-02-23T07:12:59.841Z,2.37
2023-02-23T07:15:10.183Z,2.40
2023-02-23T07:17:18.912Z,2.40
2023-02-23T07:19:27.681Z,2.60
2023-02-23T07:21:36.725Z,3.10
2023-02-23T07:23:45.773Z,2.40
2023-02-23T07:25:55.236Z,2.50
2023-02-23T07:28:05.637Z,2.20
2023-02-23T07:30:15.491Z,2.60
2023-02-23T07:32:24.183Z,2.33
2023-02-23T07:34:33.077Z,3.20
2023-02-23T07:36:41.930Z,3.30
2023-02-23T07:38:50.571Z,2.77
2023-02-23T07:40:59.199Z,2.70
2023-02-23T07:43:09.677Z,2.00
2023-02-23T07:45:18.347Z,2.60
2023-02-23T07:47:31.585Z,2.90
2023-02-23T07:49:40.323Z,2.63
2023-02-23T07:51:49.025Z,2.60
2023-02-23T07:53:57.659Z,2.53
2023-02-23T07:56:07.092Z,2.57
2023-02-23T07:58:17.481Z,2.10
2023-02-23T08:00:27.714Z,2.60
2023-02-23T08:02:36.331Z,1.90
2023-02-23T08:04:44.896Z,2.30
2023-02-23T08:06:53.654Z,2.60
2023-02-23T08:09:05.625Z,2.20
2023-02-23T08:11:14.600Z,2.10
2023-02-23T08:13:24.710Z,2.20
2023-02-23T08:15:33.497Z,2.40
2023-02-23T08:17:43.570Z,2.47
2023-02-23T08:19:51.949Z,2.33
2023-02-23T08:22:00.818Z,2.20
2023-02-23T08:24:10.941Z,2.30
2023-02-23T08:26:19.428Z,2.33
2023-02-23T08:28:30.658Z,2.10
2023-02-23T08:30:39.808Z,2.07
2023-02-23T08:32:48.790Z,2.30
2023-02-23T08:34:58.346Z,1.83
2023-02-23T08:37:07.263Z,1.93
2023-02-23T08:39:16.304Z,2.40
2023-02-23T08:41:25.717Z,1.80
2023-02-23T08:43:35.615Z,1.90
2023-02-23T08:45:44.184Z,2.20
2023-02-23T08:47:52.761Z,2.27
2023-02-23T08:50:01.496Z,2.13
2023-02-23T08:52:10.047Z,1.57
2023-02-23T08:54:20.675Z,1.60
2023-02-23T08:56:29.806Z,1.60
2023-02-23T08:58:40.430Z,1.77
2023-02-23T09:00:48.991Z,2.03
2023-02-23T09:02:57.908Z,1.43
2023-02-23T09:05:07.218Z,1.90
2023-02-23T09:07:17.951Z,1.97
2023-02-23T09:09:26.978Z,1.30
2023-02-23T09:11:38.298Z,1.50
2023-02-23T09:13:49.255Z,1.50
2023-02-23T09:15:58.008Z,1.40
2023-02-23T09:18:07.500Z,1.40
2023-02-23T09:20:17.700Z,1.60
2023-02-23T09:22:26.178Z,1.83
2023-02-23T09:24:35.087Z,1.30
2023-02-23T09:26:45.855Z,1.70
2023-02-23T09:28:56.716Z,1.80
2023-02-23T09:31:10.160Z,1.63
2023-02-23T09:33:18.774Z,1.20
2023-02-23T09:35:27.820Z,1.70
2023-02-23T09:37:36.955Z,1.80
2023-02-23T09:39:45.863Z,1.60
2023-02-23T09:42:20.983Z,1.80
2023-02-23T09:44:42.406Z,1.60
2023-02-23T09:47:01.986Z,1.47
2023-02-23T09:49:18.525Z,1.40
2023-02-23T09:51:27.674Z,1.90
2023-02-23T09:53:40.668Z,1.70
2023-02-23T09:55:51.874Z,2.00
2023-02-23T09:58:08.499Z,1.67
2023-02-23T10:00:24.643Z,1.50
2023-02-23T10:02:39.874Z,1.97
2023-02-23T10:04:50.986Z,2.00
2023-02-23T10:07:06.491Z,2.17
2023-02-23T10:09:24.016Z,2.17
2023-02-23T10:11:38.405Z,1.90
2023-02-23T10:14:02.338Z,2.30
2023-02-23T10:16:20.012Z,2.10
2023-02-23T10:18:46.547Z,2.50
2023-02-23T10:21:01.396Z,2.20
2023-02-23T10:23:15.627Z,2.63
2023-02-23T10:25:28.802Z,2.70
2023-02-23T10:27:42.247Z,2.90
2023-02-23T10:29:53.152Z,2.80
2023-02-23T10:32:08.147Z,2.60
2023-02-23T10:34:19.659Z,2.90
2023-02-23T10:36:37.106Z,2.70
2023-02-23T10:38:45.929Z,2.57
2023-02-23T10:40:57.552Z,2.40
2023-02-23T10:43:05.946Z,3.13
2023-02-23T10:45:23.342Z,2.50
2023-02-23T10:47:37.668Z,2.77
2023-02-23T10:49:49.283Z,2.63
2023-02-23T10:52:03.150Z,2.83
2023-02-23T10:54:37.693Z,3.03
2023-02-23T10:56:48.190Z,3.30
2023-02-23T10:58:59.044Z,2.90
2023-02-23T11:01:08.276Z,2.60
2023-02-23T11:03:28.803Z,2.97
2023-02-23T11:05:46.632Z,2.87
2023-02-23T11:08:21.217Z,3.33
2023-02-23T11:10:32.295Z,2.97
2023-02-23T11:12:42.315Z,2.53
2023-02-23T11:14:52.050Z,2.83
2023-02-23T11:17:01.686Z,2.93
2023-02-23T11:19:26.340Z,2.73
2023-02-23T11:21:37.445Z,2.90
2023-02-23T11:23:46.194Z,3.07
2023-02-23T11:25:56.743Z,3.13
2023-02-23T11:28:05.743Z,3.10
2023-02-23T11:30:16.054Z,2.70
2023-02-23T11:32:30.381Z,2.90
2023-02-23T11:34:43.482Z,3.00
2023-02-23T11:37:01.519Z,2.97
2023-02-23T11:39:23.295Z,2.63
2023-02-23T11:41:35.407Z,3.07
2023-02-23T11:43:51.212Z,2.80
2023-02-23T11:46:02.093Z,2.63
2023-02-23T11:48:22.269Z,2.80
2023-02-23T11:50:36.056Z,2.53
2023-02-23T11:52:46.177Z,2.60
2023-02-23T11:54:58.015Z,3.10
2023-02-23T11:57:07.701Z,3.20
2023-02-23T11:59:21.185Z,3.00
2023-02-23T12:01:44.825Z,4.17
2023-02-23T12:03:56.787Z,4.63
2023-02-23T12:06:07.382Z,3.77
2023-02-23T12:08:21.123Z,3.77
2023-02-23T12:10:34.128Z,3.50
2023-02-23T12:13:07.620Z,3.80
2023-02-23T12:15:25.820Z,4.10
2023-02-23T12:17:41.781Z,3.13
2023-02-23T12:19:55.934Z,4.20
2023-02-23T12:22:12.232Z,4.60
2023-02-23T12:24:30.011Z,5.50
2023-02-23T12:26:48.952Z,4.93
2023-02-23T12:29:02.933Z,4.77
2023-02-23T12:31:25.118Z,4.53
2023-02-23T12:33:38.640Z,4.53
2023-02-23T12:35:54.353Z,4.40
2023-02-23T12:38:14.287Z,4.83
2023-02-23T12:40:28.707Z,4.17
2023-02-23T12:42:41.844Z,5.10
2023-02-23T12:44:54.798Z,4.50
2023-02-23T12:47:10.034Z,5.87
2023-02-23T12:49:27.209Z,5.00
2023-02-23T12:51:40.747Z,4.47
2023-02-23T12:53:53.149Z,5.17
2023-02-23T12:56:13.255Z,5.40
2023-02-23T12:58:30.323Z,5.73
2023-02-23T13:00:54.667Z,4.10
2023-02-23T13:03:44.826Z,4.63
2023-02-23T13:06:01.937Z,3.90
2023-02-23T13:08:22.140Z,3.90
2023-02-23T13:10:43.778Z,4.27
2023-02-23T13:13:04.924Z,3.30
2023-02-23T13:15:25.004Z,3.13
2023-02-23T13:17:40.652Z,3.00
2023-02-23T13:19:54.153Z,3.07
2023-02-23T13:22:13.254Z,3.10
2023-02-23T13:24:25.834Z,3.53
2023-02-23T13:26:44.524Z,3.30
2023-02-23T13:28:58.831Z,3.47
2023-02-23T13:31:14.793Z,3.53
2023-02-23T13:33:43.622Z,3.70
2023-02-23T13:35:54.022Z,3.63
2023-02-23T13:38:10.802Z,3.50
2023-02-23T13:40:29.174Z,3.13
2023-02-23T13:42:50.416Z,3.50
2023-02-23T13:45:14.643Z,2.70
2023-02-23T13:47:35.680Z,2.90
2023-02-23T13:49:53.332Z,3.27
2023-02-23T13:52:11.860Z,3.40
2023-02-23T13:54:32.273Z,3.10
2023-02-23T13:56:46.086Z,3.57
2023-02-23T13:59:02.319Z,3.40
2023-02-23T14:01:15.984Z,3.70
2023-02-23T14:03:30.528Z,3.87
2023-02-23T14:05:45.123Z,3.20
2023-02-23T14:07:56.443Z,3.60
2023-02-23T14:10:09.042Z,3.83
2023-02-23T14:12:24.614Z,3.90
2023-02-23T14:14:46.288Z,3.37
2023-02-23T14:17:21.004Z,3.30
2023-02-23T14:19:36.770Z,3.93
2023-02-23T14:21:52.445Z,3.67
2023-02-23T14:24:18.769Z,3.87
2023-02-23T14:27:05.179Z,3.77
2023-02-23T14:29:32.048Z,3.93
2023-02-23T14:31:56.234Z,6.30
2023-02-23T14:34:15.575Z,4.27
2023-02-23T14:36:45.623Z,4.23
2023-02-23T14:39:01.825Z,3.73
2023-02-23T14:41:12.477Z,3.67
2023-02-23T14:43:41.809Z,3.80
2023-02-23T14:45:50.100Z,3.67
2023-02-23T14:48:04.876Z,4.13
2023-02-23T14:50:19.947Z,4.97
2023-02-23T14:52:31.758Z,4.27
2023-02-23T14:54:42.144Z,4.43
2023-02-23T14:56:52.864Z,4.10
2023-02-23T14:59:01.403Z,4.63
2023-02-23T15:01:10.489Z,4.10
2023-02-23T15:03:22.501Z,4.50
2023-02-23T15:05:32.987Z,4.10
2023-02-23T15:07:45.395Z,3.77
2023-02-23T15:09:56.348Z,4.47
2023-02-23T15:12:14.699Z,3.60
2023-02-23T15:14:28.120Z,3.47
2023-02-23T15:16:38.896Z,3.90
2023-02-23T15:18:51.439Z,4.07
2023-02-23T15:21:00.214Z,3.90
2023-02-23T15:23:09.323Z,3.90
2023-02-23T15:25:20.020Z,3.97
2023-02-23T15:27:32.851Z,3.73
2023-02-23T15:29:42.079Z,4.50
2023-02-23T15:31:52.692Z,4.13
2023-02-23T15:34:03.865Z,3.77
2023-02-23T15:36:18.256Z,3.60
2023-02-23T15:38:43.615Z,3.57
2023-02-23T15:40:56.665Z,3.63
2023-02-23T15:43:05.554Z,4.17
2023-02-23T15:45:20.075Z,3.53
2023-02-23T15:47:31.572Z,3.67
2023-02-23T15:49:42.356Z,3.73
2023-02-23T15:51:52.250Z,3.47
2023-02-23T15:54:01.682Z,3.87
2023-02-23T15:56:16.595Z,3.57
2023-02-23T15:58:27.481Z,3.90
2023-02-23T16:00:39.311Z,3.80
2023-02-23T16:02:50.263Z,3.37
2023-02-23T16:05:10.211Z,3.53
2023-02-23T16:07:20.159Z,3.47
2023-02-23T16:09:31.230Z,4.20
2023-02-23T16:11:41.486Z,3.40
2023-02-23T16:13:56.432Z,3.70
2023-02-23T16:16:08.998Z,3.80
2023-02-23T16:18:19.665Z,3.50
2023-02-23T16:20:38.437Z,3.90
2023-02-23T16:22:47.802Z,4.70
2023-02-23T16:25:01.399Z,3.80
2023-02-23T16:27:13.585Z,4.60
2023-02-23T16:29:27.539Z,4.10
2023-02-23T16:31:43.709Z,4.23
2023-02-23T16:33:54.673Z,4.50
2023-02-23T16:36:19.145Z,4.73
2023-02-23T16:38:29.587Z,4.90
2023-02-23T16:40:38.963Z,6.87
2023-02-23T16:42:47.687Z,6.60
2023-02-23T16:44:56.534Z,5.53
2023-02-23T16:47:28.058Z,6.53
2023-02-23T16:49:37.193Z,5.30
2023-02-23T16:51:47.584Z,5.77
2023-02-23T16:53:56.485Z,5.17
2023-02-23T16:56:12.536Z,6.50
2023-02-23T16:58:23.285Z,4.87
2023-02-23T17:00:34.077Z,5.37
2023-02-23T17:02:43.065Z,6.10
2023-02-23T17:04:53.082Z,4.87
2023-02-23T17:07:03.629Z,5.37
2023-02-23T17:09:12.752Z,4.83
2023-02-23T17:11:22.106Z,4.87
2023-02-23T17:13:33.450Z,5.73
2023-02-23T17:15:48.177Z,5.70
2023-02-23T17:17:57.229Z,5.93
2023-02-23T17:20:17.958Z,7.03
2023-02-23T17:22:29.323Z,5.03
2023-02-23T17:24:38.257Z,8.03
2023-02-23T17:26:47.179Z,5.20
2023-02-23T17:28:55.985Z,5.53
2023-02-23T17:31:05.731Z,4.60
2023-02-23T17:33:15.328Z,6.07
2023-02-23T17:35:24.845Z,5.50
2023-02-23T17:37:37.606Z,5.43
2023-02-23T17:39:48.587Z,5.50
2023-02-23T17:41:58.425Z,6.10
2023-02-23T17:44:07.208Z,6.53
2023-02-23T17:46:16.497Z,6.00
2023-02-23T17:48:25.954Z,5.90
2023-02-23T17:50:34.587Z,5.43
2023-02-23T17:52:45.385Z,5.63
2023-02-23T17:54:54.677Z,5.50
2023-02-23T17:57:03.407Z,4.90
2023-02-23T17:59:12.294Z,5.10
2023-02-23T18:01:21.638Z,5.23
2023-02-23T18:03:32.208Z,5.70
2023-02-23T18:05:41.326Z,5.93
2023-02-23T18:07:52.368Z,5.40
2023-02-23T18:10:01.295Z,6.30
2023-02-23T18:12:10.309Z,5.93
2023-02-23T18:14:19.328Z,5.47
2023-02-23T18:16:28.203Z,5.10
2023-02-23T18:18:37.230Z,4.70
2023-02-23T18:20:51.069Z,4.60
2023-02-23T18:23:02.003Z,4.63
2023-02-23T18:25:11.973Z,4.53
2023-02-23T18:27:20.780Z,5.23
2023-02-23T18:29:30.243Z,4.63
2023-02-23T18:31:39.424Z,4.63
2023-02-23T18:33:53.107Z,3.40
2023-02-23T18:36:02.712Z,4.03
2023-02-23T18:38:14.066Z,4.00
2023-02-23T18:40:26.458Z,4.20
2023-02-23T18:42:35.399Z,4.20
2023-02-23T18:44:44.975Z,4.40
2023-02-23T18:46:55.121Z,5.03
2023-02-23T18:49:04.385Z,4.07
2023-02-23T18:51:15.011Z,3.87
2023-02-23T18:53:25.238Z,4.27
2023-02-23T18:55:34.109Z,4.47
2023-02-23T18:57:43.370Z,4.53
2023-02-23T18:59:52.563Z,4.00
2023-02-23T19:02:01.471Z,3.50
2023-02-23T19:04:11.423Z,4.93
2023-02-23T19:06:20.939Z,5.27
2023-02-23T19:08:31.767Z,6.50
2023-02-23T19:10:41.002Z,5.47
2023-02-23T19:12:49.758Z,4.87
2023-02-23T19:14:59.351Z,9.30
2023-02-23T19:17:08.309Z,10.60
2023-02-23T19:19:17.710Z,6.30
2023-02-23T19:21:29.432Z,5.60
2023-02-23T19:23:39.861Z,5.23
2023-02-23T19:25:50.049Z,7.93
2023-02-23T19:27:58.986Z,6.93
2023-02-23T19:30:10.142Z,9.23
2023-02-23T19:32:19.392Z,7.50
2023-02-23T19:34:28.098Z,7.33
2023-02-23T19:36:37.588Z,8.57
2023-02-23T19:38:49.187Z,18.80
2023-02-23T19:40:58.300Z,16.90
2023-02-23T19:43:07.927Z,11.03
2023-02-23T19:45:17.188Z,10.53
2023-02-23T19:47:26.013Z,16.30
2023-02-23T19:49:34.915Z,6.50
2023-02-23T19:51:44.411Z,9.87
2023-02-23T19:53:55.888Z,7.87
2023-02-23T19:56:05.918Z,3.60
2023-02-23T19:58:15.418Z,5.27
2023-02-23T20:00:24.527Z,4.53
2023-02-23T20:02:33.259Z,2.90
2023-02-23T20:04:42.051Z,3.20
2023-02-23T20:06:50.818Z,2.93
2023-02-23T20:09:02.124Z,3.20
2023-02-23T20:11:10.946Z,3.00
2023-02-23T20:13:20.991Z,3.80
2023-02-23T20:15:30.216Z,3.07
2023-02-23T20:17:40.291Z,2.70
2023-02-23T20:19:51.476Z,3.00
2023-02-23T20:22:00.504Z,2.60
2023-02-23T20:24:13.053Z,3.27
2023-02-23T20:26:23.409Z,4.13
2023-02-23T20:28:32.225Z,2.90
2023-02-23T20:30:41.458Z,3.17
2023-02-23T20:32:51.194Z,3.13
2023-02-23T20:35:01.838Z,2.93
2023-02-23T20:37:10.413Z,3.07
2023-02-23T20:39:20.673Z,2.90
2023-02-23T20:41:30.007Z,3.27
2023-02-23T20:43:39.529Z,3.17
2023-02-23T20:45:48.550Z,3.00
2023-02-23T20:47:57.143Z,2.00
2023-02-23T20:50:06.813Z,2.50
2023-02-23T20:52:15.903Z,2.20
2023-02-23T20:54:26.756Z,2.37
2023-02-23T20:56:36.288Z,1.90
2023-02-23T20:58:45.533Z,1.73
2023-02-23T21:00:57.457Z,1.93
2023-02-23T21:03:07.010Z,2.00
2023-02-23T21:05:17.274Z,2.47
2023-02-23T21:07:27.353Z,7.10
2023-02-23T21:09:42.757Z,2.63
2023-02-23T21:11:51.449Z,2.50
2023-02-23T21:14:00.898Z,2.60
2023-02-23T21:16:10.357Z,2.67
2023-02-23T21:18:19.400Z,3.27
2023-02-23T21:20:29.034Z,2.20
2023-02-23T21:22:37.699Z,3.10
2023-02-23T21:24:48.816Z,2.47
2023-02-23T21:26:57.395Z,1.53
2023-02-23T21:29:11.910Z,2.37
2023-02-23T21:31:20.751Z,2.47
2023-02-23T21:33:29.528Z,2.90
2023-02-23T21:35:40.529Z,2.80
2023-02-23T21:37:50.121Z,2.50
2023-02-23T21:40:00.623Z,2.10
2023-02-23T21:42:09.374Z,1.87
2023-02-23T21:44:18.506Z,1.80
2023-02-23T21:46:27.408Z,1.63
2023-02-23T21:48:36.046Z,2.37
2023-02-23T21:50:45.212Z,2.40
2023-02-23T21:52:54.154Z,2.17
2023-02-23T21:55:08.069Z,2.07
2023-02-23T21:57:23.364Z,2.63
2023-02-23T21:59:32.133Z,2.63
2023-02-23T22:01:43.095Z,2.03
2023-02-23T22:03:54.955Z,1.83
2023-02-23T22:06:03.766Z,2.17
2023-02-23T22:08:15.813Z,1.80
2023-02-23T22:10:26.352Z,1.60
2023-02-23T22:12:35.837Z,1.73
2023-02-23T22:14:44.808Z,1.90
2023-02-23T22:16:53.802Z,1.90
2023-02-23T22:19:04.613Z,1.80
2023-02-23T22:21:13.642Z,1.87
2023-02-23T22:23:22.596Z,1.87
2023-02-23T22:25:33.014Z,1.60
2023-02-23T22:27:44.054Z,2.30
2023-02-23T22:29:54.627Z,1.87
2023-02-23T22:32:03.996Z,1.90
2023-02-23T22:34:13.016Z,1.63
2023-02-23T22:36:22.072Z,1.97
2023-02-23T22:38:31.671Z,1.90
2023-02-23T22:40:43.529Z,2.00
2023-02-23T22:42:54.348Z,2.53
2023-02-23T22:45:03.499Z,2.13
2023-02-23T22:47:12.655Z,2.17
2023-02-23T22:49:21.960Z,2.13
2023-02-23T22:51:30.893Z,2.27
2023-02-23T22:53:39.956Z,2.33
2023-02-23T22:55:51.993Z,2.13
2023-02-23T22:58:01.416Z,2.03
2023-02-23T23:00:11.594Z,2.07
2023-02-23T23:02:21.036Z,2.30
2023-02-23T23:04:29.830Z,2.10
2023-02-23T23:06:40.109Z,1.80
2023-02-23T23:08:49.384Z,2.03
2023-02-23T23:11:04.177Z,2.00
2023-02-23T23:13:12.842Z,1.70
2023-02-23T23:15:23.515Z,2.00
2023-02-23T23:17:33.636Z,2.10
2023-02-23T23:19:42.400Z,1.93
2023-02-23T23:21:53.364Z,2.00
2023-02-23T23:24:06.259Z,1.70
2023-02-23T23:26:18.104Z,2.13
2023-02-23T23:28:27.853Z,1.90
2023-02-23T23:30:36.730Z,1.60
2023-02-23T23:32:45.781Z,2.03
2023-02-23T23:34:57.527Z,1.77
2023-02-23T23:37:06.666Z,1.63
2023-02-23T23:39:17.006Z,1.30
2023-02-23T23:41:28.291Z,1.57
2023-02-23T23:43:38.035Z,1.53
2023-02-23T23:45:49.650Z,1.40
2023-02-23T23:47:58.787Z,1.30
2023-02-23T23:50:10.905Z,1.67
2023-02-23T23:52:21.624Z,1.60
2023-02-23T23:54:31.180Z,1.40
2023-02-23T23:56:42.729Z,1.63
2023-02-23T23:58:52.594Z,1.80
